createdAt,value
2019-04-11T00:01:08.027Z,7.13
2019-04-11T00:03:45.729Z,6.90
2019-04-11T00:06:23.470Z,7.93
2019-04-11T00:09:00.703Z,6.80
2019-04-11T00:11:37.755Z,7.70
2019-04-11T00:14:15.821Z,7.30
2019-04-11T00:16:53.369Z,7.57
2019-04-11T00:19:29.787Z,7.97
2019-04-11T00:22:07.300Z,7.80
2019-04-11T00:24:45.182Z,7.97
2019-04-11T00:27:22.274Z,7.83
2019-04-11T00:29:59.779Z,7.57
2019-04-11T00:32:37.971Z,8.40
2019-04-11T00:35:15.471Z,8.00
2019-04-11T00:37:52.262Z,7.30
2019-04-11T00:40:29.753Z,8.27
2019-04-11T00:43:07.415Z,7.80
2019-04-11T00:45:45.623Z,8.07
2019-04-11T00:48:22.306Z,8.67
2019-04-11T00:50:59.836Z,8.33
2019-04-11T00:53:38.308Z,8.47
2019-04-11T00:56:15.790Z,7.60
2019-04-11T00:58:52.316Z,7.97
2019-04-11T01:01:29.845Z,7.83
2019-04-11T01:04:07.643Z,7.53
2019-04-11T01:06:44.835Z,8.50
2019-04-11T01:09:22.331Z,8.40
2019-04-11T01:12:00.453Z,8.43
2019-04-11T01:14:38.576Z,8.70
2019-04-11T01:17:14.954Z,7.73
2019-04-11T01:19:53.213Z,8.10
2019-04-11T01:22:29.914Z,7.73
2019-04-11T01:25:08.402Z,7.90
2019-04-11T01:27:45.900Z,8.20
2019-04-11T01:30:25.136Z,8.17
2019-04-11T01:33:02.666Z,7.93
2019-04-11T01:35:40.181Z,8.20
2019-04-11T01:38:17.696Z,8.03
2019-04-11T01:40:56.160Z,7.47
2019-04-11T01:43:32.695Z,8.23
2019-04-11T01:46:10.187Z,7.53
2019-04-11T01:49:19.781Z,8.27
2019-04-11T01:51:58.186Z,8.67
2019-04-11T01:54:35.478Z,8.70
2019-04-11T01:57:12.238Z,8.87
2019-04-11T01:59:49.729Z,8.30
2019-04-11T02:02:48.658Z,9.47
2019-04-11T02:05:27.922Z,7.73
2019-04-11T02:08:05.436Z,8.50
2019-04-11T02:10:43.248Z,8.60
2019-04-11T02:13:20.573Z,8.90
2019-04-11T02:15:58.866Z,8.00
2019-04-11T02:18:35.573Z,8.67
2019-04-11T02:21:13.618Z,8.70
2019-04-11T02:23:59.820Z,8.50
2019-04-11T02:26:37.715Z,8.37
2019-04-11T02:29:14.866Z,9.60
2019-04-11T02:31:52.917Z,8.90
2019-04-11T02:34:29.885Z,9.40
2019-04-11T02:37:09.149Z,9.63
2019-04-11T02:39:44.834Z,8.80
2019-04-11T02:42:23.367Z,8.83
2019-04-11T02:45:18.490Z,9.47
2019-04-11T02:47:39.563Z,8.83
2019-04-11T02:50:17.104Z,8.80
2019-04-11T02:52:52.874Z,8.70
2019-04-11T02:55:31.674Z,8.80
2019-04-11T02:58:08.097Z,8.40
2019-04-11T03:00:45.648Z,9.20
2019-04-11T03:03:23.221Z,8.73
2019-04-11T03:06:02.176Z,8.93
2019-04-11T03:08:38.803Z,8.40
2019-04-11T03:11:16.765Z,8.60
2019-04-11T03:13:54.846Z,9.33
2019-04-11T03:16:42.670Z,9.57
2019-04-11T03:19:22.563Z,10.37
2019-04-11T03:21:47.382Z,9.07
2019-04-11T03:24:24.458Z,12.17
2019-04-11T03:27:04.576Z,13.17
2019-04-11T03:29:38.681Z,15.60
2019-04-11T03:33:11.342Z,14.07
2019-04-11T03:38:00.071Z,11.03
2019-04-11T03:40:30.773Z,10.63
2019-04-11T03:43:01.231Z,10.20
2019-04-11T03:45:48.329Z,9.87
2019-04-11T03:48:20.346Z,9.43
2019-04-11T03:50:42.537Z,9.80
2019-04-11T03:53:21.513Z,9.73
2019-04-11T03:55:58.700Z,11.23
2019-04-11T03:58:35.104Z,10.27
2019-04-11T04:01:14.005Z,11.03
2019-04-11T04:03:51.888Z,10.13
2019-04-11T04:06:28.685Z,10.23
2019-04-11T04:09:06.595Z,10.23
2019-04-11T04:11:45.452Z,10.30
2019-04-11T04:14:37.696Z,9.47
2019-04-11T04:17:43.571Z,9.70
2019-04-11T04:20:39.419Z,9.40
2019-04-11T04:23:38.894Z,10.97
2019-04-11T04:26:16.879Z,10.50
2019-04-11T04:28:55.386Z,10.83
2019-04-11T04:31:32.887Z,11.60
2019-04-11T04:34:09.386Z,11.70
2019-04-11T04:36:47.297Z,9.97
2019-04-11T04:39:24.863Z,11.50
2019-04-11T04:42:09.261Z,10.47
2019-04-11T04:44:40.386Z,10.47
2019-04-11T04:47:22.144Z,10.00
2019-04-11T04:49:54.379Z,12.00
2019-04-11T04:52:32.501Z,11.10
2019-04-11T04:55:10.591Z,11.23
2019-04-11T04:57:46.499Z,11.97
2019-04-11T05:00:25.430Z,9.67
2019-04-11T05:03:02.195Z,11.13
2019-04-11T05:05:39.059Z,10.10
2019-04-11T05:08:16.689Z,9.90
2019-04-11T05:10:55.659Z,11.00
2019-04-11T05:13:32.343Z,10.57
2019-04-11T05:16:17.282Z,10.33
2019-04-11T05:18:46.764Z,10.40
2019-04-11T05:21:25.350Z,11.20
2019-04-11T05:24:02.071Z,11.60
2019-04-11T05:26:39.685Z,10.00
2019-04-11T05:29:17.421Z,10.43
2019-04-11T05:31:54.702Z,9.87
2019-04-11T05:34:32.787Z,11.23
2019-04-11T05:37:09.291Z,9.83
2019-04-11T05:39:46.827Z,11.53
2019-04-11T05:42:26.958Z,11.53
2019-04-11T05:45:01.822Z,10.97
2019-04-11T05:47:39.392Z,10.57
2019-04-11T05:50:45.442Z,11.30
2019-04-11T05:53:21.111Z,11.00
2019-04-11T05:55:57.468Z,12.70
2019-04-11T05:58:36.625Z,11.60
2019-04-11T06:01:18.286Z,11.63
2019-04-11T06:03:58.669Z,11.13
2019-04-11T06:06:44.375Z,10.90
2019-04-11T06:09:30.368Z,11.90
2019-04-11T06:12:41.644Z,11.90
2019-04-11T06:15:23.637Z,11.38
2019-04-11T06:18:02.815Z,10.70
2019-04-11T06:20:47.218Z,11.33
2019-04-11T06:23:43.453Z,11.77
2019-04-11T06:26:38.718Z,10.17
2019-04-11T06:29:24.975Z,10.23
2019-04-11T06:32:24.835Z,10.43
2019-04-11T06:35:08.054Z,10.63
2019-04-11T06:38:12.767Z,10.30
2019-04-11T06:40:59.933Z,10.80
2019-04-11T06:43:52.117Z,11.50
2019-04-11T06:46:54.075Z,10.77
2019-04-11T06:49:36.366Z,11.13
2019-04-11T06:52:14.847Z,10.73
2019-04-11T06:55:10.843Z,12.33
2019-04-11T06:57:48.167Z,11.93
2019-04-11T07:00:25.786Z,12.77
2019-04-11T07:03:03.737Z,11.40
2019-04-11T07:05:41.267Z,11.03
2019-04-11T07:08:20.360Z,10.33
2019-04-11T07:11:02.951Z,10.47
2019-04-11T07:13:49.780Z,10.60
2019-04-11T07:16:27.603Z,10.73
2019-04-11T07:19:23.011Z,11.20
2019-04-11T07:22:00.504Z,10.77
2019-04-11T07:24:57.366Z,11.97
2019-04-11T07:27:36.646Z,11.07
2019-04-11T07:30:33.238Z,10.83
2019-04-11T07:33:28.898Z,10.73
2019-04-11T07:36:24.452Z,10.93
2019-04-11T07:39:09.943Z,9.70
2019-04-11T07:42:06.947Z,10.20
2019-04-11T07:44:43.143Z,10.23
2019-04-11T07:47:29.523Z,10.87
2019-04-11T07:50:07.931Z,11.10
2019-04-11T07:52:50.033Z,10.00
2019-04-11T07:55:27.937Z,10.20
2019-04-11T07:58:24.012Z,9.60
2019-04-11T08:01:24.859Z,9.50
2019-04-11T08:04:19.964Z,9.37
2019-04-11T08:07:13.176Z,8.53
2019-04-11T08:09:57.152Z,9.57
2019-04-11T08:12:34.179Z,8.70
2019-04-11T08:15:46.047Z,9.83
2019-04-11T08:18:59.320Z,8.53
2019-04-11T08:22:00.860Z,8.97
2019-04-11T08:24:48.969Z,8.50
2019-04-11T08:27:54.112Z,8.50
2019-04-11T08:30:20.508Z,7.87
2019-04-11T08:33:00.306Z,6.97
2019-04-11T08:35:54.051Z,6.40
2019-04-11T08:38:32.195Z,5.57
2019-04-11T08:41:21.721Z,5.87
2019-04-11T08:43:59.448Z,6.37
2019-04-11T08:46:39.573Z,7.07
2019-04-11T08:49:29.918Z,7.63
2019-04-11T08:52:09.794Z,5.90
2019-04-11T08:55:06.191Z,5.23
2019-04-11T08:57:49.970Z,6.73
2019-04-11T09:00:38.614Z,4.63
2019-04-11T09:03:23.902Z,4.80
2019-04-11T09:06:14.685Z,5.50
2019-04-11T09:09:20.901Z,3.90
2019-04-11T09:12:00.446Z,4.87
2019-04-11T09:15:05.947Z,5.03
2019-04-11T09:17:58.861Z,5.63
2019-04-11T09:20:46.160Z,5.57
2019-04-11T09:23:25.921Z,5.63
2019-04-11T09:26:32.010Z,5.50
2019-04-11T09:29:08.700Z,5.00
2019-04-11T09:32:07.755Z,5.30
2019-04-11T09:34:50.584Z,4.30
2019-04-11T09:37:33.922Z,4.90
2019-04-11T09:40:30.212Z,4.70
2019-04-11T09:43:26.478Z,4.40
2019-04-11T09:46:33.048Z,3.70
2019-04-11T09:49:24.863Z,4.50
2019-04-11T09:52:22.745Z,4.70
2019-04-11T09:55:12.969Z,5.00
2019-04-11T09:57:54.637Z,5.10
2019-04-11T10:00:59.493Z,4.87
2019-04-11T10:03:36.921Z,7.43
2019-04-11T10:06:36.750Z,6.03
2019-04-11T10:09:13.791Z,5.87
2019-04-11T10:12:09.960Z,6.10
2019-04-11T10:14:50.147Z,5.63
2019-04-11T10:17:48.567Z,6.23
2019-04-11T10:20:26.814Z,5.57
2019-04-11T10:23:22.954Z,5.30
2019-04-11T10:26:03.530Z,6.20
2019-04-11T10:29:00.162Z,5.90
2019-04-11T10:31:38.942Z,6.10
2019-04-11T10:34:35.427Z,5.83
2019-04-11T10:37:15.869Z,5.50
2019-04-11T10:40:01.833Z,5.90
2019-04-11T10:42:39.046Z,5.83
2019-04-11T10:45:35.013Z,5.23
2019-04-11T10:48:13.794Z,5.50
2019-04-11T10:51:11.377Z,5.30
2019-04-11T10:53:49.874Z,5.63
2019-04-11T10:56:47.575Z,5.23
2019-04-11T10:59:27.970Z,5.13
2019-04-11T11:02:12.663Z,5.53
2019-04-11T11:04:52.629Z,5.90
2019-04-11T11:07:32.892Z,5.17
2019-04-11T11:10:15.775Z,5.67
2019-04-11T11:13:19.429Z,5.23
2019-04-11T11:16:00.071Z,5.47
2019-04-11T11:19:24.451Z,5.57
2019-04-11T11:21:37.226Z,6.13
2019-04-11T11:24:31.648Z,4.80
2019-04-11T11:27:09.431Z,5.30
2019-04-11T11:30:12.732Z,5.53
2019-04-11T11:32:50.150Z,5.93
2019-04-11T11:36:01.176Z,5.13
2019-04-11T11:38:36.269Z,5.00
2019-04-11T11:41:32.364Z,5.10
2019-04-11T11:44:11.664Z,5.50
2019-04-11T11:47:05.477Z,5.70
2019-04-11T11:49:51.932Z,5.03
2019-04-11T11:52:41.221Z,5.10
2019-04-11T11:55:21.849Z,5.10
2019-04-11T11:58:16.797Z,5.00
2019-04-11T12:00:52.149Z,4.27
2019-04-11T12:03:59.340Z,4.13
2019-04-11T12:06:33.347Z,4.13
2019-04-11T12:09:30.734Z,4.30
2019-04-11T12:12:13.560Z,4.40
2019-04-11T12:15:09.745Z,4.23
2019-04-11T12:18:01.777Z,4.17
2019-04-11T12:20:46.344Z,4.80
2019-04-11T12:23:43.656Z,4.40
2019-04-11T12:26:12.536Z,3.67
2019-04-11T12:29:06.687Z,3.83
2019-04-11T12:31:48.093Z,4.60
2019-04-11T12:34:36.723Z,5.40
2019-04-11T12:37:23.442Z,3.97
2019-04-11T12:40:22.642Z,4.17
2019-04-11T12:43:01.874Z,4.10
2019-04-11T12:45:57.881Z,4.37
2019-04-11T12:48:40.089Z,4.37
2019-04-11T12:51:23.055Z,4.10
2019-04-11T12:54:00.576Z,4.63
2019-04-11T12:56:54.685Z,4.70
2019-04-11T12:59:32.343Z,4.20
2019-04-11T13:02:28.478Z,4.60
2019-04-11T13:05:07.207Z,5.30
2019-04-11T13:07:53.021Z,4.80
2019-04-11T13:10:32.940Z,4.20
2019-04-11T13:13:28.390Z,4.27
2019-04-11T13:16:12.770Z,4.43
2019-04-11T13:19:07.571Z,4.00
2019-04-11T13:21:57.830Z,4.23
2019-04-11T13:24:55.856Z,4.43
2019-04-11T13:27:37.776Z,4.63
2019-04-11T13:30:33.934Z,4.30
2019-04-11T13:33:17.640Z,4.57
2019-04-11T13:36:16.498Z,4.80
2019-04-11T13:38:54.225Z,4.40
2019-04-11T13:41:50.309Z,4.37
2019-04-11T13:44:30.922Z,3.93
2019-04-11T13:47:26.648Z,5.03
2019-04-11T13:50:16.286Z,4.33
2019-04-11T13:53:14.333Z,4.13
2019-04-11T13:55:51.928Z,3.80
2019-04-11T13:59:00.708Z,3.87
2019-04-11T14:01:39.418Z,3.80
2019-04-11T14:04:22.754Z,3.57
2019-04-11T14:07:00.241Z,4.73
2019-04-11T14:09:42.862Z,4.27
2019-04-11T14:12:20.358Z,4.20
2019-04-11T14:15:06.356Z,5.17
2019-04-11T14:17:58.484Z,4.70
2019-04-11T14:20:41.809Z,4.90
2019-04-11T14:23:34.232Z,4.73
2019-04-11T14:26:30.639Z,4.37
2019-04-11T14:29:13.605Z,4.33
2019-04-11T14:31:54.689Z,4.80
2019-04-11T14:35:03.293Z,4.40
2019-04-11T14:37:47.342Z,4.07
2019-04-11T14:41:01.656Z,4.60
2019-04-11T14:43:40.516Z,5.13
2019-04-11T14:46:37.251Z,5.10
2019-04-11T14:49:16.085Z,6.53
2019-04-11T14:52:12.155Z,4.97
2019-04-11T14:54:51.756Z,4.97
2019-04-11T14:57:54.498Z,5.40
2019-04-11T15:00:34.059Z,4.77
2019-04-11T15:03:30.194Z,4.47
2019-04-11T15:06:36.290Z,5.00
2019-04-11T15:09:32.780Z,4.73
2019-04-11T15:12:19.414Z,4.80
2019-04-11T15:15:25.412Z,3.77
2019-04-11T15:18:04.812Z,4.73
2019-04-11T15:21:06.613Z,3.93
2019-04-11T15:23:44.782Z,4.40
2019-04-11T15:26:40.953Z,4.50
2019-04-11T15:29:26.173Z,6.40
2019-04-11T15:32:24.931Z,7.87
2019-04-11T15:35:08.511Z,15.50
2019-04-11T15:38:04.276Z,4.70
2019-04-11T15:40:45.083Z,4.77
2019-04-11T15:43:43.245Z,4.13
2019-04-11T15:46:24.007Z,3.87
2019-04-11T15:49:24.691Z,3.50
2019-04-11T15:52:01.215Z,3.37
2019-04-11T15:54:57.363Z,4.10
2019-04-11T15:57:44.350Z,4.77
2019-04-11T16:00:43.653Z,3.40
2019-04-11T16:03:24.589Z,4.30
2019-04-11T16:06:19.082Z,3.43
2019-04-11T16:08:59.497Z,3.60
2019-04-11T16:11:56.318Z,4.00
2019-04-11T16:14:38.276Z,4.07
2019-04-11T16:17:42.409Z,3.33
2019-04-11T16:20:25.950Z,3.40
2019-04-11T16:23:25.837Z,3.43
2019-04-11T16:26:01.188Z,3.43
2019-04-11T16:29:08.667Z,3.40
2019-04-11T16:31:45.543Z,3.30
2019-04-11T16:34:47.896Z,2.80
2019-04-11T16:37:18.576Z,2.80
2019-04-11T16:40:14.465Z,2.73
2019-04-11T16:42:59.071Z,2.80
2019-04-11T16:45:54.799Z,3.07
2019-04-11T16:48:30.400Z,2.70
2019-04-11T16:51:07.954Z,2.97
2019-04-11T16:53:45.549Z,3.10
2019-04-11T16:56:23.044Z,2.40
2019-04-11T16:59:00.651Z,2.50
2019-04-11T17:01:38.063Z,2.60
2019-04-11T17:04:15.580Z,2.40
2019-04-11T17:07:00.356Z,2.40
2019-04-11T17:09:41.253Z,2.70
2019-04-11T17:12:20.199Z,2.33
2019-04-11T17:15:01.083Z,2.60
2019-04-11T17:17:37.718Z,3.23
2019-04-11T17:20:16.181Z,3.00
2019-04-11T17:22:54.790Z,3.17
2019-04-11T17:25:35.016Z,2.83
2019-04-11T17:28:12.819Z,2.60
2019-04-11T17:30:55.057Z,2.90
2019-04-11T17:33:30.136Z,2.70
2019-04-11T17:36:08.478Z,2.63
2019-04-11T17:38:46.645Z,2.33
2019-04-11T17:41:24.519Z,2.50
2019-04-11T17:44:02.668Z,2.50
2019-04-11T17:46:40.782Z,2.17
2019-04-11T17:49:19.303Z,2.10
2019-04-11T17:51:57.280Z,2.90
2019-04-11T17:54:35.544Z,2.33
2019-04-11T17:57:14.006Z,2.60
2019-04-11T17:59:51.773Z,2.30
2019-04-11T18:02:30.625Z,2.90
2019-04-11T18:05:09.408Z,3.50
2019-04-11T18:07:49.941Z,2.73
2019-04-11T18:10:27.052Z,3.00
2019-04-11T18:13:06.871Z,2.90
2019-04-11T18:15:45.851Z,2.30
2019-04-11T18:18:26.927Z,2.17
2019-04-11T18:21:08.074Z,2.40
2019-04-11T18:23:49.910Z,2.30
2019-04-11T18:26:30.991Z,2.47
2019-04-11T18:29:08.743Z,2.37
2019-04-11T18:31:46.667Z,2.70
2019-04-11T18:34:24.220Z,2.43
2019-04-11T18:37:02.636Z,2.43
2019-04-11T18:39:42.957Z,2.60
2019-04-11T18:42:20.508Z,2.87
2019-04-11T18:44:58.094Z,2.60
2019-04-11T18:47:35.853Z,2.87
2019-04-11T18:50:13.704Z,3.23
2019-04-11T18:52:51.320Z,2.70
2019-04-11T18:55:29.130Z,2.97
2019-04-11T18:58:06.884Z,2.83
2019-04-11T19:00:44.713Z,3.23
2019-04-11T19:03:23.076Z,3.00
2019-04-11T19:06:00.928Z,3.10
2019-04-11T19:08:38.607Z,3.43
2019-04-11T19:11:32.134Z,3.87
2019-04-11T19:14:11.228Z,3.60
2019-04-11T19:16:51.979Z,3.50
2019-04-11T19:19:29.755Z,3.70
2019-04-11T19:22:07.634Z,3.80
2019-04-11T19:24:46.234Z,3.93
2019-04-11T19:27:24.136Z,4.37
2019-04-11T19:30:02.995Z,4.57
2019-04-11T19:32:40.647Z,3.93
2019-04-11T19:35:18.138Z,4.43
2019-04-11T19:37:55.716Z,4.00
2019-04-11T19:40:33.248Z,3.90
2019-04-11T19:43:10.801Z,4.63
2019-04-11T19:45:50.040Z,3.73
2019-04-11T19:48:25.847Z,4.03
2019-04-11T19:51:03.891Z,4.50
2019-04-11T19:53:41.381Z,4.60
2019-04-11T19:56:47.588Z,3.70
2019-04-11T19:59:25.055Z,3.67
2019-04-11T20:02:02.549Z,3.50
2019-04-11T20:04:40.061Z,3.00
2019-04-11T20:07:17.549Z,3.13
2019-04-11T20:09:55.056Z,2.93
2019-04-11T20:12:32.530Z,3.10
2019-04-11T20:15:10.139Z,3.03
2019-04-11T20:17:51.086Z,3.60
2019-04-11T20:20:25.369Z,3.10
2019-04-11T20:23:02.846Z,2.90
2019-04-11T20:25:40.369Z,2.70
2019-04-11T20:28:19.707Z,2.47
2019-04-11T20:30:55.387Z,3.03
2019-04-11T20:33:34.687Z,2.87
2019-04-11T20:36:11.183Z,2.30
2019-04-11T20:38:47.879Z,2.73
2019-04-11T20:41:25.364Z,3.00
2019-04-11T20:44:02.831Z,2.67
2019-04-11T20:46:40.348Z,2.70
2019-04-11T20:49:17.842Z,2.60
2019-04-11T20:51:55.345Z,2.40
2019-04-11T20:54:32.838Z,2.53
2019-04-11T20:57:12.058Z,2.50
2019-04-11T20:59:51.070Z,2.80
2019-04-11T21:02:29.186Z,2.67
2019-04-11T21:05:06.193Z,2.73
2019-04-11T21:07:43.696Z,2.97
2019-04-11T21:10:21.200Z,2.60
2019-04-11T21:13:07.245Z,3.30
2019-04-11T21:15:42.359Z,3.07
2019-04-11T21:18:19.836Z,3.73
2019-04-11T21:20:57.336Z,2.90
2019-04-11T21:23:34.808Z,2.63
2019-04-11T21:26:12.348Z,3.17
2019-04-11T21:28:49.824Z,2.50
2019-04-11T21:31:30.814Z,2.90
2019-04-11T21:34:04.833Z,2.70
2019-04-11T21:36:42.341Z,2.70
2019-04-11T21:39:19.827Z,2.43
2019-04-11T21:41:57.329Z,2.50
2019-04-11T21:44:36.770Z,2.70
2019-04-11T21:47:12.322Z,3.13
2019-04-11T21:49:49.802Z,2.63
2019-04-11T21:52:27.313Z,2.70
2019-04-11T21:55:05.167Z,3.10
2019-04-11T21:57:42.676Z,2.73
2019-04-11T22:00:26.638Z,2.47
2019-04-11T22:03:06.598Z,2.83
2019-04-11T22:05:41.982Z,3.10
2019-04-11T22:08:19.487Z,3.03
2019-04-11T22:10:56.980Z,2.80
2019-04-11T22:13:34.468Z,2.80
2019-04-11T22:16:14.218Z,2.97
2019-04-11T22:18:49.462Z,2.83
2019-04-11T22:21:26.974Z,2.80
2019-04-11T22:24:04.444Z,3.10
2019-04-11T22:26:41.949Z,2.83
2019-04-11T22:29:19.430Z,2.67
2019-04-11T22:31:56.988Z,2.90
2019-04-11T22:34:41.582Z,3.07
2019-04-11T22:37:19.069Z,3.13
2019-04-11T22:39:56.536Z,2.57
2019-04-11T22:42:34.053Z,3.50
2019-04-11T22:45:11.537Z,2.60
2019-04-11T22:47:49.053Z,2.73
2019-04-11T22:50:26.520Z,2.70
2019-04-11T22:53:04.017Z,3.33
2019-04-11T22:55:41.889Z,3.23
2019-04-11T22:58:19.004Z,3.00
2019-04-11T23:00:56.467Z,3.40
2019-04-11T23:03:46.971Z,3.00
2019-04-11T23:06:21.363Z,3.00
2019-04-11T23:08:58.828Z,2.63
2019-04-11T23:11:36.327Z,3.00
2019-04-11T23:14:15.950Z,2.80
2019-04-11T23:16:51.332Z,2.83
2019-04-11T23:19:28.812Z,2.97
2019-04-11T23:22:06.315Z,2.80
2019-04-11T23:24:43.806Z,3.27
2019-04-11T23:27:21.385Z,2.90
2019-04-11T23:29:58.900Z,3.10
2019-04-11T23:32:36.382Z,2.60
2019-04-11T23:35:13.855Z,3.30
2019-04-11T23:37:52.125Z,2.80
2019-04-11T23:40:29.429Z,2.93
2019-04-11T23:43:06.987Z,3.10
2019-04-11T23:45:44.408Z,3.20
2019-04-11T23:48:24.068Z,2.97
2019-04-11T23:50:59.383Z,3.47
2019-04-11T23:53:36.893Z,3.07
2019-04-11T23:56:14.387Z,3.07
2019-04-11T23:58:51.886Z,3.00
